Time;durP1;ratioP1;P1;durP2;ratioP2;P2;SDS_P1;SDS_P2;PMS_P1;PMS_P2;Temp;Humidity;BMP_temperature;BMP_pressure;BME280_temperature;BME280_humidity;BME280_pressure;Samples;Min_cycle;Max_cycle;Signal;HPM_P1;HPM_P2
2021/04/14 00:01:28;;;;;;;28.50;19.23;;;-1.20;99.90;;;-1.43;100.00;96034.00;2434853;56;26093;-63
2021/04/14 00:04:15;;;;;;;27.20;19.07;;;-1.30;99.90;;;-1.54;100.00;96029.00;2215369;56;26198;-64
2021/04/14 00:07:02;;;;;;;26.03;18.40;;;-1.40;99.90;;;-1.60;100.00;96032.00;2434751;56;26129;-63
2021/04/14 00:09:48;;;;;;;28.00;17.67;;;-1.40;99.90;;;-1.67;100.00;96034.00;2215963;56;26116;-63
2021/04/14 00:12:35;;;;;;;29.57;19.30;;;-1.50;99.90;;;-1.76;100.00;96030.00;2434878;56;25563;-62
2021/04/14 00:15:26;;;;;;;28.80;19.17;;;-1.60;99.90;;;-1.85;100.00;96035.00;2215833;56;26562;-63
2021/04/14 00:18:12;;;;;;;31.73;19.63;;;-1.60;99.90;;;-1.91;100.00;96030.00;2434361;56;26136;-63
2021/04/14 00:20:58;;;;;;;29.73;20.13;;;-1.70;99.90;;;-2.03;100.00;96013.00;2216063;56;26137;-63
2021/04/14 00:23:45;;;;;;;31.13;18.93;;;-1.70;99.90;;;-2.01;100.00;96024.00;2214757;56;26282;-63
2021/04/14 00:26:31;;;;;;;27.13;18.80;;;-1.70;99.90;;;-2.01;100.00;96029.00;2215669;56;26096;-63
2021/04/14 00:29:18;;;;;;;32.10;19.33;;;-1.80;99.90;;;-1.96;100.00;96022.00;2215755;56;26112;-63
2021/04/14 00:32:07;;;;;;;29.63;18.90;;;-1.80;99.90;;;-2.03;100.00;96023.00;2434692;56;26124;-63
2021/04/14 00:34:53;;;;;;;30.17;19.67;;;-1.80;99.90;;;-2.09;100.00;96023.00;2215870;56;26134;-63
2021/04/14 00:37:40;;;;;;;29.47;19.10;;;-1.80;99.90;;;-2.05;100.00;96017.00;2435061;56;26123;-63
2021/04/14 00:40:31;;;;;;;31.77;19.03;;;-1.80;99.90;;;-2.05;100.00;96028.00;2214677;56;26745;-63
2021/04/14 00:43:23;;;;;;;30.47;19.97;;;-1.70;99.90;;;-1.97;100.00;96026.00;2214953;56;26248;-63
2021/04/14 00:46:09;;;;;;;30.73;19.50;;;-1.70;99.90;;;-1.99;100.00;96028.00;2216147;56;26175;-63
2021/04/14 00:48:55;;;;;;;29.87;19.00;;;-1.90;99.90;;;-2.11;100.00;96025.00;2433983;56;26160;-63
2021/04/14 00:51:42;;;;;;;31.10;19.40;;;-1.90;99.90;;;-2.19;100.00;96022.00;2216473;56;26164;-63
2021/04/14 00:54:28;;;;;;;30.13;19.50;;;-1.90;99.90;;;-2.20;100.00;96025.00;2434547;56;26116;-63
2021/04/14 00:57:15;;;;;;;29.80;18.93;;;-2.00;99.90;;;-2.26;100.00;96025.00;2215675;56;26089;-63
2021/04/14 01:00:02;;;;;;;30.30;18.73;;;-2.00;99.90;;;-2.17;100.00;96022.00;2215745;56;26270;-62
2021/04/14 01:02:48;;;;;;;28.97;17.93;;;-2.00;99.90;;;-2.26;100.00;96014.00;2434629;56;26706;-63
2021/04/14 01:05:37;;;;;;;29.30;17.17;;;-2.00;99.90;;;-2.18;100.00;96016.00;2214206;56;26316;-63
2021/04/14 01:08:24;;;;;;;28.40;18.20;;;-2.00;99.90;;;-2.11;100.00;96018.00;2434714;56;26157;-62
2021/04/14 01:11:14;;;;;;;30.87;18.53;;;-2.00;99.90;;;-2.38;100.00;96020.00;2216051;56;26257;-63
2021/04/14 01:14:01;;;;;;;29.83;18.57;;;-2.10;99.90;;;-2.39;100.00;96023.00;2434471;56;26149;-63
2021/04/14 01:16:47;;;;;;;27.97;17.60;;;-2.10;99.90;;;-2.41;100.00;96019.00;2216046;56;26630;-64
2021/04/14 01:19:33;;;;;;;27.73;17.50;;;-2.20;99.90;;;-2.46;100.00;96013.00;2434283;56;26231;-64
2021/04/14 01:22:20;;;;;;;28.90;17.63;;;-2.20;99.90;;;-2.51;100.00;96013.00;2215867;56;26238;-63
2021/04/14 01:25:11;;;;;;;30.37;17.97;;;-2.30;99.90;;;-2.58;100.00;96002.00;2434770;56;26544;-63
2021/04/14 01:27:57;;;;;;;29.27;18.03;;;-2.30;99.90;;;-2.55;100.00;96012.00;2215987;56;26142;-63
2021/04/14 01:30:45;;;;;;;29.60;18.07;;;-2.30;99.90;;;-2.54;100.00;96011.00;2434719;56;26172;-63
2021/04/14 01:33:33;;;;;;;29.97;17.63;;;-2.30;99.90;;;-2.53;100.00;96015.00;2215152;56;26530;-62
2021/04/14 01:36:20;;;;;;;29.43;18.20;;;-2.30;99.90;;;-2.56;100.00;96016.00;2435050;56;26649;-62
2021/04/14 01:39:09;;;;;;;28.23;18.27;;;-2.40;99.90;;;-2.63;100.00;96006.00;2214950;56;26648;-63
2021/04/14 01:41:55;;;;;;;26.67;17.90;;;-2.40;99.90;;;-2.69;100.00;96007.00;2435038;56;25214;-63
2021/04/14 01:44:42;;;;;;;27.90;18.23;;;-2.40;99.90;;;-2.66;100.00;96003.00;2216180;56;25158;-63
2021/04/14 01:47:28;;;;;;;26.43;16.67;;;-2.40;99.90;;;-2.71;100.00;96009.00;2215534;56;26200;-63
2021/04/14 01:50:15;;;;;;;25.83;17.83;;;-2.50;99.90;;;-2.80;100.00;96006.00;2434442;56;26202;-63
2021/04/14 01:53:04;;;;;;;28.83;18.33;;;-2.50;99.90;;;-2.88;100.00;95997.00;2216228;56;26160;-63
2021/04/14 01:55:51;;;;;;;26.07;16.77;;;-2.50;99.90;;;-2.80;100.00;96001.00;2434823;56;26167;-63
2021/04/14 01:58:37;;;;;;;27.97;17.07;;;-2.50;99.90;;;-2.84;100.00;96003.00;2215776;56;26137;-63
2021/04/14 02:01:24;;;;;;;27.00;17.20;;;-2.60;99.90;;;-3.01;100.00;96001.00;2434169;56;26150;-63
2021/04/14 02:04:10;;;;;;;27.20;17.57;;;-2.70;99.90;;;-3.06;100.00;95994.00;2215034;56;26136;-64
2021/04/14 02:06:57;;;;;;;26.00;17.70;;;-2.60;99.90;;;-2.95;100.00;95993.00;2434889;56;26253;-63
2021/04/14 02:09:43;;;;;;;27.77;18.23;;;-2.60;99.90;;;-2.95;100.00;95987.00;2216029;56;26177;-64
2021/04/14 02:12:30;;;;;;;25.80;16.90;;;-2.80;99.90;;;-3.06;100.00;95986.00;2214820;56;26168;-62
2021/04/14 02:15:24;;;;;;;26.80;16.77;;;-2.80;99.90;;;-3.07;100.00;95987.00;2214762;56;25182;-63
2021/04/14 02:18:11;;;;;;;29.97;18.20;;;-2.80;99.90;;;-3.12;100.00;95981.00;2434422;56;26658;-63
2021/04/14 02:20:59;;;;;;;26.37;17.13;;;-2.80;99.90;;;-3.14;100.00;95987.00;2215961;56;26165;-63
2021/04/14 02:26:41;;;;;;;28.50;18.20;;;-2.90;99.90;;;-3.03;100.00;95960.00;2225035;57;32808;-62
2021/04/14 02:29:27;;;;;;;25.53;16.33;;;-2.90;99.90;;;-3.25;100.00;95981.00;2219383;55;26268;-62
2021/04/14 02:32:14;;;;;;;23.70;16.53;;;-3.00;99.90;;;-3.27;100.00;95990.00;2209173;56;26644;-64
2021/04/14 02:35:01;;;;;;;27.10;17.00;;;-3.00;99.90;;;-3.22;100.00;95989.00;2209103;55;26223;-65
2021/04/14 02:37:47;;;;;;;27.60;17.13;;;-3.00;99.90;;;-3.41;100.00;95968.00;2207989;56;26142;-66
2021/04/14 02:40:35;;;;;;;23.90;15.93;;;-3.00;99.90;;;-3.31;100.00;95979.00;2207782;56;25706;-65
2021/04/14 02:43:22;;;;;;;26.53;16.37;;;-3.00;99.90;;;-3.31;100.00;95978.00;2425460;56;25545;-62
2021/04/14 02:46:09;;;;;;;23.30;15.67;;;-3.10;99.90;;;-3.36;100.00;95977.00;2209076;56;26732;-62
2021/04/14 02:48:55;;;;;;;24.70;15.53;;;-3.10;99.90;;;-3.37;100.00;95971.00;2214796;56;26629;-62
2021/04/14 02:51:41;;;;;;;25.83;16.53;;;-3.10;99.90;;;-3.44;100.00;95971.00;2235581;56;26226;-62
2021/04/14 02:54:27;;;;;;;29.03;16.93;;;-3.10;99.90;;;-3.40;100.00;95970.00;2462937;55;26142;-62
2021/04/14 02:57:14;;;;;;;25.17;16.43;;;-3.20;99.90;;;-3.46;100.00;95965.00;2240038;56;26082;-62
2021/04/14 03:00:00;;;;;;;24.17;16.33;;;-3.20;99.90;;;-3.49;100.00;95972.00;2239412;56;26193;-62
2021/04/14 03:02:46;;;;;;;24.30;15.80;;;-3.20;99.90;;;-3.49;100.00;95967.00;2462891;55;25610;-62
2021/04/14 03:05:35;;;;;;;27.47;16.60;;;-3.30;99.90;;;-3.52;100.00;95964.00;2239374;55;26573;-62
2021/04/14 03:08:23;;;;;;;34.30;16.67;;;-3.40;99.90;;;-3.59;100.00;95966.00;2462374;55;26189;-62
2021/04/14 03:11:09;;;;;;;25.43;16.07;;;-3.20;99.90;;;-3.37;100.00;95960.00;2238187;55;26193;-62
2021/04/14 03:13:57;;;;;;;25.70;16.37;;;-3.20;99.90;;;-3.46;100.00;95961.00;2238672;55;26222;-62
2021/04/14 03:16:43;;;;;;;26.70;15.67;;;-3.20;99.90;;;-3.47;100.00;95952.00;2463907;55;26220;-62
2021/04/14 03:19:30;;;;;;;25.10;15.40;;;-3.30;99.90;;;-3.39;100.00;95953.00;2462693;55;26123;-62
2021/04/14 03:22:16;;;;;;;25.60;15.97;;;-3.40;99.90;;;-3.72;100.00;95942.00;2239475;55;26231;-62
2021/04/14 03:25:04;;;;;;;27.77;16.53;;;-3.40;99.90;;;-3.68;100.00;95945.00;2463543;55;26102;-62
2021/04/14 03:27:50;;;;;;;27.07;17.43;;;-3.50;99.90;;;-3.72;100.00;95947.00;2239819;56;26594;-61
2021/04/14 03:30:37;;;;;;;26.97;16.20;;;-3.50;99.90;;;-3.68;100.00;95948.00;2239982;56;26594;-62
2021/04/14 03:33:23;;;;;;;25.27;16.37;;;-3.60;99.90;;;-3.80;100.00;95954.00;2451924;55;26211;-62
2021/04/14 03:36:10;;;;;;;32.10;18.20;;;-3.60;99.90;;;-3.81;100.00;95957.00;2214712;56;25157;-61
2021/04/14 03:38:56;;;;;;;28.73;18.03;;;-3.50;99.90;;;-3.66;100.00;95952.00;2432968;55;26643;-61
2021/04/14 03:41:43;;;;;;;28.43;18.17;;;-3.40;99.90;;;-3.57;100.00;95953.00;2214859;56;25463;-61
2021/04/14 03:44:33;;;;;;;32.70;17.20;;;-3.30;99.90;;;-3.53;100.00;95952.00;2432272;56;26140;-62
2021/04/14 03:47:21;;;;;;;32.70;17.43;;;-3.40;99.90;;;-3.57;100.00;95952.00;2214170;57;26136;-62
2021/04/14 03:50:12;;;;;;;31.00;18.97;;;-3.40;99.90;;;-3.60;100.00;95949.00;2440442;56;26139;-61
2021/04/14 03:53:14;;;;;;;34.03;19.77;;;-3.50;99.90;;;-3.65;100.00;95953.00;2220758;57;26193;-62
2021/04/14 03:56:05;;;;;;;35.33;19.93;;;-3.40;99.90;;;-3.52;100.00;95950.00;2213575;57;26719;-62
2021/04/14 03:58:54;;;;;;;38.93;20.63;;;-3.40;99.90;;;-3.48;100.00;95950.00;2432234;56;26613;-62
2021/04/14 04:01:41;;;;;;;36.77;21.83;;;-3.50;99.90;;;-3.51;100.00;95964.00;2213997;57;26166;-61
2021/04/14 04:04:27;;;;;;;214.13;26.13;;;-3.40;99.90;;;-3.39;100.00;95963.00;2455222;55;26192;-62
2021/04/14 04:07:14;;;;;;;110.63;21.57;;;-3.30;99.90;;;-3.29;100.00;95948.00;2239128;56;26116;-61
2021/04/14 04:10:00;;;;;;;93.70;22.73;;;-3.40;99.90;;;-3.35;100.00;95961.00;2462898;55;26196;-64
2021/04/14 04:12:47;;;;;;;159.37;30.50;;;-3.40;99.90;;;-3.33;100.00;95954.00;2239389;56;26136;-64
2021/04/14 04:15:35;;;;;;;115.03;23.20;;;-3.40;99.90;;;-3.37;100.00;95955.00;2462769;55;26185;-64
2021/04/14 04:18:22;;;;;;;80.13;20.53;;;-3.20;99.90;;;-3.06;100.00;95959.00;2238576;56;26558;-64
2021/04/14 04:21:09;;;;;;;76.80;22.97;;;-3.20;99.90;;;-3.26;100.00;95963.00;2462779;55;26161;-64
2021/04/14 04:23:56;;;;;;;116.77;25.03;;;-3.40;99.90;;;-3.38;100.00;95967.00;2239212;56;26137;-64
2021/04/14 04:26:42;;;;;;;101.53;24.07;;;-3.40;99.90;;;-3.43;100.00;95965.00;2238827;56;26713;-62
2021/04/14 04:29:28;;;;;;;83.13;25.33;;;-3.40;99.90;;;-3.37;100.00;95961.00;2237587;56;26211;-62
2021/04/14 04:32:15;;;;;;;63.77;21.97;;;-3.50;99.90;;;-3.46;100.00;95956.00;2238094;56;26141;-64
2021/04/14 04:35:02;;;;;;;69.27;21.97;;;-3.50;99.90;;;-3.46;100.00;95965.00;2237330;56;26180;-64
2021/04/14 04:37:49;;;;;;;102.57;23.23;;;-3.40;99.90;;;-3.44;100.00;95962.00;2239409;56;25243;-61
2021/04/14 04:40:35;;;;;;;109.33;22.73;;;-3.50;99.90;;;-3.47;100.00;95960.00;2463083;55;26181;-61
2021/04/14 04:43:23;;;;;;;98.07;23.80;;;-3.50;99.90;;;-3.48;100.00;95959.00;2238834;56;26522;-62
2021/04/14 04:46:09;;;;;;;109.87;26.13;;;-3.60;99.90;;;-3.53;100.00;95963.00;2462779;55;26112;-62
2021/04/14 04:48:56;;;;;;;89.43;23.90;;;-3.50;99.90;;;-3.44;100.00;95971.00;2238603;56;26527;-61
2021/04/14 04:51:42;;;;;;;109.03;27.70;;;-3.50;99.90;;;-3.35;100.00;95971.00;2239556;56;26237;-62
2021/04/14 04:54:31;;;;;;;58.53;23.47;;;-3.40;99.90;;;-3.26;100.00;95964.00;2467549;55;25174;-62
2021/04/14 04:57:17;;;;;;;53.33;22.27;;;-3.30;99.90;;;-3.00;100.00;95966.00;2239823;56;26265;-61
2021/04/14 05:00:07;;;;;;;58.23;22.53;;;-3.00;99.90;;;-2.76;100.00;95962.00;2463884;55;26712;-60
2021/04/14 05:02:54;;;;;;;58.87;25.77;;;-3.00;99.90;;;-2.77;100.00;95963.00;2239660;56;26165;-61
2021/04/14 05:05:41;;;;;;;54.40;22.50;;;-3.00;99.90;;;-2.75;100.00;95965.00;2463510;55;26089;-61
2021/04/14 05:08:28;;;;;;;44.07;21.80;;;-3.10;99.90;;;-2.73;100.00;95963.00;2239689;56;26173;-63
2021/04/14 05:11:15;;;;;;;33.73;20.20;;;-2.60;99.90;;;-2.26;100.00;95973.00;2463376;55;26167;-61
2021/04/14 05:14:01;;;;;;;34.93;20.90;;;-2.90;99.90;;;-2.61;100.00;95965.00;2239571;56;26658;-62
2021/04/14 05:16:48;;;;;;;37.97;20.67;;;-3.00;99.90;;;-2.65;100.00;95964.00;2462911;55;26152;-61
2021/04/14 05:19:34;;;;;;;33.10;20.60;;;-2.90;99.90;;;-2.49;100.00;95966.00;2239056;56;25582;-62
2021/04/14 05:22:22;;;;;;;29.83;19.50;;;-2.90;99.90;;;-2.31;100.00;95961.00;2462812;55;25547;-61
2021/04/14 05:25:10;;;;;;;33.07;20.50;;;-2.80;99.90;;;-2.25;100.00;95948.00;2238982;56;26539;-62
2021/04/14 05:28:02;;;;;;;37.50;21.37;;;-2.60;99.90;;;-2.16;100.00;95957.00;2239297;56;26144;-61
2021/04/14 05:30:48;;;;;;;34.27;21.13;;;-2.70;99.90;;;-2.14;100.00;95958.00;2235230;56;26573;-61
2021/04/14 05:33:35;;;;;;;32.10;19.90;;;-2.60;99.90;;;-1.94;100.00;95964.00;2213531;56;25233;-60
2021/04/14 05:36:21;;;;;;;36.50;22.00;;;-2.40;99.90;;;-1.66;100.00;95966.00;2432858;56;26592;-60
2021/04/14 05:39:08;;;;;;;35.43;22.60;;;-2.50;99.90;;;-1.52;100.00;95957.00;2214478;57;26206;-60
2021/04/14 05:41:54;;;;;;;31.30;20.93;;;-1.70;99.90;;;0.20;100.00;95945.00;2432948;56;26314;-60
2021/04/14 05:44:40;;;;;;;31.57;21.07;;;-1.20;99.90;;;1.62;100.00;95932.00;2214324;57;26189;-59
2021/04/14 05:47:27;;;;;;;24.60;17.60;;;-1.00;99.90;;;1.88;100.00;95914.00;2447367;56;26561;-60
2021/04/14 05:50:19;;;;;;;22.30;15.83;;;-1.60;99.90;;;0.24;100.00;95906.00;2213482;57;26107;-60
2021/04/14 05:53:05;;;;;;;22.40;16.00;;;-1.60;99.90;;;0.34;100.00;95914.00;2432312;56;26177;-59
2021/04/14 05:55:52;;;;;;;19.60;14.40;;;-1.00;99.90;;;1.96;100.00;95912.00;2264472;56;26188;-60
2021/04/14 05:58:39;;;;;;;17.40;13.47;;;-0.90;99.90;;;1.95;100.00;95907.00;2264160;56;26098;-60
2021/04/14 06:01:30;;;;;;;17.37;12.57;;;-0.80;99.90;;;1.90;100.00;95910.00;2493084;55;26190;-59
2021/04/14 06:04:18;;;;;;;15.70;11.97;;;-0.70;99.90;;;2.20;100.00;95912.00;2492338;55;26083;-60
2021/04/14 06:07:04;;;;;;;15.63;11.37;;;-0.50;99.90;;;2.39;100.00;95907.00;2264367;56;26123;-60
2021/04/14 06:09:50;;;;;;;14.27;10.83;;;-0.20;99.90;;;3.21;100.00;95903.00;2264181;56;25243;-59
2021/04/14 06:12:37;;;;;;;12.87;10.40;;;0.20;99.90;;;4.55;100.00;95899.00;2493324;55;25135;-60
2021/04/14 06:15:28;;;;;;;13.77;9.80;;;1.10;99.90;;;5.13;100.00;95900.00;2263807;56;26618;-62
2021/04/14 06:18:14;;;;;;;12.73;8.63;;;1.90;99.90;;;5.88;100.00;95903.00;2492371;55;25671;-62
2021/04/14 06:21:02;;;;;;;10.63;9.40;;;2.40;99.90;;;6.31;100.00;95909.00;2264510;56;26139;-62
2021/04/14 06:23:49;;;;;;;13.13;10.20;;;3.50;99.90;;;7.59;100.00;95902.00;2492848;55;26558;-60
2021/04/14 06:26:40;;;;;;;14.37;11.10;;;2.50;99.90;;;6.10;100.00;95919.00;2263587;56;26158;-61
2021/04/14 06:29:27;;;;;;;13.50;10.10;;;2.50;99.90;;;6.27;100.00;95913.00;2478068;55;26693;-61
2021/04/14 06:32:13;;;;;;;14.37;10.57;;;1.90;99.90;;;5.44;100.00;95909.00;2263156;56;26105;-61
2021/04/14 06:35:00;;;;;;;13.67;10.13;;;1.20;99.90;;;3.84;100.00;95918.00;2492489;55;25528;-62
2021/04/14 06:37:46;;;;;;;12.33;9.73;;;1.60;99.90;;;4.26;100.00;95913.00;2264304;56;26605;-61
2021/04/14 06:44:01;;;;;;;13.53;10.97;;;0.50;99.90;;;2.34;100.00;95923.00;2268400;56;26102;-62
2021/04/14 06:46:50;;;;;;;14.10;10.87;;;0.70;99.90;;;3.19;100.00;95918.00;2498340;55;26530;-62
2021/04/14 06:49:45;;;;;;;16.57;11.27;;;1.70;99.90;;;5.78;100.00;95914.00;2268038;56;26503;-62
2021/04/14 06:52:40;;;;;;;12.90;10.47;;;1.90;99.90;;;6.10;100.00;95911.00;2268951;56;26213;-62
2021/04/14 06:55:32;;;;;;;11.93;9.93;;;1.80;99.90;;;5.33;100.00;95908.00;2498136;55;26129;-62
2021/04/14 06:58:23;;;;;;;12.97;10.90;;;2.40;99.90;;;6.02;100.00;95908.00;2268182;56;25595;-60
2021/04/14 07:01:16;;;;;;;13.43;10.83;;;1.90;99.90;;;6.21;100.00;95908.00;2498588;55;26558;-62
2021/04/14 07:04:08;;;;;;;11.40;9.97;;;3.20;99.90;;;8.31;100.00;95895.00;2497657;55;26161;-61
2021/04/14 07:06:55;;;;;;;13.37;10.37;;;3.50;99.90;;;8.46;100.00;95898.00;2268644;56;26566;-64
2021/04/14 07:09:47;;;;;;;10.70;9.60;;;3.70;99.90;;;9.13;100.00;95898.00;2498278;55;26581;-64
2021/04/14 07:12:33;;;;;;;12.10;9.50;;;4.40;99.90;;;9.32;100.00;95898.00;2243610;56;26175;-63
2021/04/14 07:15:21;;;;;;;13.37;9.73;;;4.00;99.90;;;9.41;100.00;95899.00;2243113;56;26103;-61
2021/04/14 07:18:24;;;;;;;10.53;9.03;;;4.90;99.90;;;10.58;100.00;95897.00;2467859;55;26180;-61
2021/04/14 07:21:21;;;;;;;15.40;9.63;;;5.20;99.90;;;11.45;100.00;95887.00;2467992;55;26556;-61
2021/04/14 07:24:23;;;;;;;9.37;8.37;;;5.10;99.90;;;10.57;100.00;95892.00;2467917;55;26587;-61
2021/04/14 07:27:22;;;;;;;8.60;7.70;;;9.20;99.90;;;15.22;66.95;95882.00;2468160;55;26567;-61
2021/04/14 07:30:15;;;;;;;9.27;8.23;;;7.70;99.90;;;13.23;74.38;95884.00;2242447;56;26557;-61
2021/04/14 07:33:18;;;;;;;9.00;8.10;;;6.60;99.90;;;10.91;89.42;95891.00;2242091;56;26140;-61
2021/04/14 07:36:18;;;;;;;8.67;7.80;;;8.60;99.90;;;14.56;64.71;95886.00;2469889;55;26484;-62
2021/04/14 07:39:19;;;;;;;8.80;7.90;;;6.50;99.90;;;11.57;88.12;95888.00;2491969;55;26114;-62
2021/04/14 07:42:25;;;;;;;8.27;7.03;;;8.10;99.90;;;13.44;72.22;95893.00;2491958;55;26623;-61
2021/04/14 07:45:25;;;;;;;8.00;6.30;;;6.70;99.90;;;11.61;75.00;95892.00;2491488;55;26063;-61
2021/04/14 07:48:24;;;;;;;7.07;6.37;;;6.90;99.90;;;12.10;69.96;95895.00;2491522;55;26086;-61
2021/04/14 07:51:14;;;;;;;8.57;6.13;;;7.70;99.90;;;13.51;68.67;95894.00;2262924;56;26527;-61
2021/04/14 07:54:05;;;;;;;11.20;6.67;;;9.40;99.90;;;15.47;58.59;95889.00;2491691;55;26480;-62
2021/04/14 07:56:56;;;;;;;7.50;5.93;;;9.00;99.90;;;14.11;59.31;95888.00;2263007;56;26090;-61
2021/04/14 07:59:44;;;;;;;7.40;5.53;;;11.20;99.90;;;16.49;50.27;95888.00;2263071;56;26039;-61
2021/04/14 08:02:33;;;;;;;7.55;5.75;;;11.50;99.90;;;15.74;48.16;95881.00;2262774;56;26172;-62
2021/04/14 08:05:33;;;;;;;8.67;6.77;;;10.60;99.90;;;15.49;50.90;95879.00;2262056;56;26539;-61
2021/04/14 08:08:30;;;;;;;9.60;6.57;;;8.70;99.90;;;13.53;58.63;95886.00;2491787;55;26121;-62
2021/04/14 08:11:27;;;;;;;7.60;4.53;;;10.40;99.90;;;15.19;52.32;95885.00;2491923;55;26055;-62
2021/04/14 08:14:33;;;;;;;4.47;3.35;;;11.70;99.90;;;16.03;45.54;95879.00;2262841;56;26504;-61
2021/04/14 08:17:24;;;;;;;3.85;3.50;;;12.90;99.90;;;15.59;43.76;95881.00;2263015;56;26622;-62
2021/04/14 08:20:26;;;;;;;2.90;2.60;;;13.70;99.90;;;17.58;44.27;95876.00;2490891;55;26128;-61
2021/04/14 08:23:17;;;;;;;4.95;3.17;;;11.90;99.90;;;16.86;39.33;95881.00;2491680;55;26131;-62
2021/04/14 08:26:16;;;;;;;4.75;3.37;;;11.50;99.90;;;16.44;43.23;95873.00;2262965;56;26073;-62
2021/04/14 08:29:13;;;;;;;6.35;4.10;;;10.20;99.90;;;14.40;57.35;95885.00;2262398;56;26055;-62
2021/04/14 08:31:59;;;;;;;4.80;3.27;;;10.70;99.90;;;13.59;47.16;95872.00;2491315;55;26108;-62
2021/04/14 08:34:57;;;;;;;5.17;4.00;;;10.20;99.90;;;14.20;46.37;95877.00;2262266;56;26432;-61
2021/04/14 08:37:45;;;;;;;3.90;3.50;;;8.60;99.90;;;12.56;62.36;95880.00;2263252;56;26113;-62
2021/04/14 08:40:33;;;;;;;5.30;4.10;;;8.20;99.90;;;11.51;71.02;95881.00;2262442;56;26103;-61
2021/04/14 08:43:27;;;;;;;5.77;4.63;;;11.80;99.90;;;14.79;47.45;95869.00;2262798;56;26116;-61
2021/04/14 08:46:18;;;;;;;5.30;3.47;;;11.10;99.90;;;14.49;51.98;95872.00;2491283;55;26124;-62
2021/04/14 08:49:10;;;;;;;4.83;3.97;;;13.70;99.90;;;17.51;39.66;95862.00;2262511;56;26196;-62
2021/04/14 08:51:57;;;;;;;5.80;3.53;;;9.20;99.90;;;11.69;69.75;95866.00;2491262;55;26579;-62
2021/04/14 08:54:43;;;;;;;4.47;3.30;;;8.60;99.90;;;12.07;60.48;95864.00;2263075;56;26062;-62
2021/04/14 08:57:29;;;;;;;5.37;3.70;;;12.80;99.90;;;16.76;39.12;95852.00;2491286;55;26154;-62
2021/04/14 09:00:19;;;;;;;5.47;4.07;;;15.00;98.00;;;17.69;37.60;95854.00;2491158;55;26078;-62
2021/04/14 09:03:09;;;;;;;4.43;3.83;;;11.10;99.90;;;13.74;51.02;95858.00;2491493;55;26150;-62
2021/04/14 09:05:56;;;;;;;7.10;3.90;;;9.30;99.90;;;12.06;78.67;95846.00;2262494;56;26569;-62
2021/04/14 09:08:47;;;;;;;4.20;3.30;;;9.40;99.90;;;13.04;60.29;95840.00;2263040;56;26065;-62
2021/04/14 09:11:35;;;;;;;4.18;3.60;;;11.40;99.90;;;16.96;43.65;95838.00;2262928;56;26603;-62
2021/04/14 09:14:24;;;;;;;4.53;3.40;;;15.00;97.40;;;17.17;37.95;95836.00;2262437;56;26546;-62
2021/04/14 09:17:20;;;;;;;5.15;3.95;;;14.60;95.20;;;15.89;37.92;95832.00;2262864;56;26551;-62
2021/04/14 09:20:19;;;;;;;5.23;3.47;;;12.50;97.40;;;12.97;45.36;95839.00;2490779;55;26127;-62
2021/04/14 09:23:10;;;;;;;6.03;3.90;;;10.00;97.90;;;10.04;51.69;95848.00;2491782;55;26527;-61
2021/04/14 09:26:01;;;;;;;8.33;5.70;;;7.10;99.90;;;8.03;99.62;95844.00;2262626;56;26472;-62
2021/04/14 09:28:50;;;;;;;8.50;4.87;;;6.00;99.90;;;6.85;100.00;95839.00;2491192;55;26150;-62
2021/04/14 09:31:46;;;;;;;5.97;4.33;;;5.80;99.90;;;6.78;100.00;95845.00;2263001;56;26178;-62
2021/04/14 09:34:37;;;;;;;7.20;4.67;;;5.60;99.90;;;6.74;100.00;95847.00;2490882;55;26187;-62
2021/04/14 09:37:33;;;;;;;5.97;3.83;;;5.20;99.90;;;5.99;100.00;95849.00;2262902;56;26124;-62
2021/04/14 09:40:33;;;;;;;4.87;3.20;;;5.10;99.90;;;6.02;100.00;95860.00;2262910;56;26115;-62
2021/04/14 09:43:34;;;;;;;5.83;3.80;;;4.60;99.90;;;5.26;100.00;95861.00;2491510;55;26552;-62
2021/04/14 09:46:31;;;;;;;6.37;4.17;;;3.80;99.90;;;4.40;100.00;95856.00;2491673;55;26543;-61
2021/04/14 09:49:33;;;;;;;5.10;4.23;;;3.30;99.90;;;4.02;100.00;95864.00;2262127;56;26222;-61
2021/04/14 09:52:25;;;;;;;5.60;3.77;;;3.00;99.90;;;3.59;100.00;95869.00;2262930;56;26148;-61
2021/04/14 09:55:20;;;;;;;5.00;3.50;;;2.90;99.90;;;3.48;100.00;95869.00;2262556;56;26544;-63
2021/04/14 09:58:12;;;;;;;7.17;4.93;;;2.60;99.90;;;3.00;100.00;95875.00;2491161;55;26043;-62
2021/04/14 10:01:12;;;;;;;5.80;4.53;;;1.70;99.90;;;1.91;100.00;95881.00;2262571;56;26057;-62
2021/04/14 10:04:02;;;;;;;9.93;6.10;;;1.10;99.90;;;1.25;100.00;95885.00;2262744;56;25484;-62
2021/04/14 10:06:51;;;;;;;8.70;5.57;;;0.80;99.90;;;0.93;100.00;95895.00;2491988;55;26127;-62
2021/04/14 10:09:37;;;;;;;6.00;4.03;;;1.00;99.90;;;1.22;100.00;95901.00;2262994;56;26078;-62
2021/04/14 10:12:29;;;;;;;7.67;4.37;;;0.80;99.90;;;1.03;100.00;95904.00;2262794;56;26047;-62
2021/04/14 10:15:17;;;;;;;6.63;4.47;;;0.70;99.90;;;1.02;100.00;95899.00;2262995;56;26448;-62
2021/04/14 10:18:05;;;;;;;6.43;4.87;;;0.50;99.90;;;0.71;100.00;95905.00;2263030;56;26152;-62
2021/04/14 10:20:53;;;;;;;10.73;6.70;;;0.60;99.90;;;0.85;100.00;95907.00;2262647;56;26039;-62
2021/04/14 10:23:40;;;;;;;10.03;5.83;;;0.50;99.90;;;0.71;100.00;95900.00;2263067;56;25622;-62
2021/04/14 10:26:32;;;;;;;5.90;3.87;;;0.90;99.90;;;1.50;100.00;95901.00;2489954;55;26132;-62
2021/04/14 10:29:23;;;;;;;6.07;3.60;;;1.30;99.90;;;1.84;100.00;95889.00;2258898;56;26130;-62
2021/04/14 10:32:17;;;;;;;4.40;3.30;;;1.40;99.90;;;1.80;100.00;95887.00;2262999;56;26133;-62
2021/04/14 10:35:15;;;;;;;4.90;3.57;;;1.40;99.90;;;2.01;100.00;95886.00;2490794;55;26608;-62
2021/04/14 10:38:02;;;;;;;5.23;3.63;;;1.30;99.90;;;1.73;100.00;95881.00;2263019;56;26195;-62
2021/04/14 10:40:49;;;;;;;4.53;3.90;;;1.30;99.90;;;2.01;100.00;95878.00;2491396;55;26075;-62
2021/04/14 10:43:35;;;;;;;5.80;4.00;;;1.40;99.90;;;2.40;100.00;95867.00;2262951;56;26074;-62
2021/04/14 10:46:27;;;;;;;4.53;4.00;;;1.80;99.90;;;3.04;100.00;95854.00;2491459;55;26115;-63
2021/04/14 10:49:26;;;;;;;5.37;3.83;;;2.30;99.90;;;3.93;100.00;95844.00;2256089;56;26522;-62
2021/04/14 10:52:22;;;;;;;4.53;3.43;;;3.00;99.90;;;4.67;100.00;95846.00;2262542;56;26134;-63
2021/04/14 10:55:16;;;;;;;5.17;3.57;;;3.50;99.90;;;5.15;100.00;95841.00;2262590;56;26107;-62
2021/04/14 10:58:06;;;;;;;3.93;2.83;;;3.90;99.90;;;5.71;100.00;95832.00;2490980;55;26211;-62
2021/04/14 11:00:53;;;;;;;3.40;3.00;;;3.80;99.90;;;5.20;100.00;95834.00;2261601;56;26838;-62
2021/04/14 11:03:51;;;;;;;5.03;3.20;;;3.80;99.90;;;5.21;100.00;95824.00;2491571;55;26071;-62
2021/04/14 11:06:38;;;;;;;5.47;2.90;;;4.10;99.90;;;5.47;100.00;95810.00;2262571;56;26546;-62
2021/04/14 11:09:25;;;;;;;5.90;3.23;;;4.40;99.90;;;5.96;100.00;95805.00;2490667;55;26115;-62
2021/04/14 11:12:16;;;;;;;4.27;3.10;;;4.70;99.90;;;6.37;100.00;95796.00;2262810;56;26148;-61
2021/04/14 11:15:13;;;;;;;3.83;2.13;;;4.70;99.90;;;6.18;100.00;95792.00;2491635;55;26117;-62
2021/04/14 11:18:03;;;;;;;2.97;2.10;;;4.80;99.90;;;6.19;100.00;95788.00;2491301;55;26114;-62
2021/04/14 11:20:55;;;;;;;3.03;2.03;;;6.70;99.90;;;8.28;100.00;95778.00;2262887;56;26106;-62
2021/04/14 11:23:42;;;;;;;3.10;2.00;;;6.00;99.90;;;7.60;100.00;95783.00;2492064;55;26126;-62
2021/04/14 11:26:28;;;;;;;4.80;2.53;;;6.10;99.90;;;8.18;100.00;95776.00;2262951;56;26111;-62
2021/04/14 11:29:23;;;;;;;4.20;2.03;;;6.70;99.90;;;8.95;100.00;95780.00;2262584;56;26599;-62
2021/04/14 11:32:19;;;;;;;8.57;3.00;;;7.00;99.90;;;9.03;100.00;95767.00;2263334;56;26138;-62
2021/04/14 11:35:09;;;;;;;3.60;2.60;;;8.30;99.90;;;11.15;100.00;95759.00;2491516;55;26110;-62
2021/04/14 11:37:56;;;;;;;5.57;2.60;;;8.10;99.90;;;10.04;100.00;95761.00;2263080;56;26109;-62
2021/04/14 11:40:43;;;;;;;5.55;2.30;;;8.60;99.90;;;11.36;100.00;95753.00;2491838;55;26114;-62
2021/04/14 11:43:35;;;;;;;4.28;2.87;;;14.00;99.90;;;17.43;44.73;95742.00;2263163;56;26111;-62
2021/04/14 11:46:37;;;;;;;3.95;2.30;;;13.40;99.90;;;15.29;65.84;95737.00;2491560;55;26123;-62
2021/04/14 11:49:28;;;;;;;3.72;2.30;;;9.90;99.90;;;11.67;95.23;95734.00;2490803;55;26545;-62